createdAt,value
2018-06-13T00:00:31.561Z,17.20
2018-06-13T00:03:12.891Z,17.30
2018-06-13T00:05:54.984Z,17.30
2018-06-13T00:08:37.312Z,17.20
2018-06-13T00:11:22.090Z,17.20
2018-06-13T00:14:07.494Z,17.20
2018-06-13T00:16:48.961Z,17.20
2018-06-13T00:19:30.709Z,17.20
2018-06-13T00:22:12.178Z,17.20
2018-06-13T00:24:53.580Z,17.20
2018-06-13T00:27:34.908Z,17.10
2018-06-13T00:30:16.364Z,17.10
2018-06-13T00:32:57.868Z,17.10
2018-06-13T00:35:39.778Z,17.10
2018-06-13T00:38:21.137Z,17.10
2018-06-13T00:41:03.724Z,17.10
2018-06-13T00:43:46.307Z,17.00
2018-06-13T00:46:29.019Z,17.00
2018-06-13T00:49:10.340Z,17.00
2018-06-13T00:51:51.717Z,16.90
2018-06-13T00:54:33.077Z,16.90
2018-06-13T00:57:14.424Z,16.90
2018-06-13T00:59:56.632Z,16.90
2018-06-13T01:02:37.911Z,16.90
2018-06-13T01:05:19.243Z,16.90
2018-06-13T01:08:00.644Z,16.90
2018-06-13T01:10:41.840Z,16.90
2018-06-13T01:13:23.301Z,16.90
2018-06-13T01:16:04.788Z,16.90
2018-06-13T01:18:46.548Z,16.90
2018-06-13T01:21:29.032Z,16.90
2018-06-13T01:24:10.492Z,16.90
2018-06-13T01:26:51.915Z,16.90
2018-06-13T01:29:33.313Z,16.80
2018-06-13T01:32:15.104Z,16.80
2018-06-13T01:34:58.079Z,16.80
2018-06-13T01:37:40.021Z,16.70
2018-06-13T01:40:21.340Z,16.60
2018-06-13T01:43:02.644Z,16.50
2018-06-13T01:45:44.237Z,16.50
2018-06-13T01:48:26.559Z,16.60
2018-06-13T01:51:07.952Z,16.50
2018-06-13T01:53:49.632Z,16.50
2018-06-13T01:56:31.152Z,16.60
2018-06-13T02:02:34.702Z,16.60
2018-06-13T02:05:18.043Z,16.60
2018-06-13T02:07:59.356Z,16.60
2018-06-13T02:10:40.806Z,16.60
2018-06-13T02:13:22.730Z,16.60
2018-06-13T02:16:04.163Z,16.60
2018-06-13T02:18:45.439Z,16.60
2018-06-13T02:21:27.408Z,16.60
2018-06-13T02:24:08.852Z,16.60
2018-06-13T02:26:50.262Z,16.60
2018-06-13T02:29:31.598Z,16.60
2018-06-13T02:32:12.922Z,16.60
2018-06-13T02:34:54.616Z,16.60
2018-06-13T02:37:36.137Z,16.60
2018-06-13T02:40:17.308Z,16.60
2018-06-13T02:42:58.613Z,16.60
2018-06-13T02:45:39.985Z,16.70
2018-06-13T02:48:21.743Z,16.70
2018-06-13T02:51:03.447Z,16.70
2018-06-13T02:53:44.840Z,16.70
2018-06-13T02:56:27.120Z,16.70
2018-06-13T02:59:08.417Z,16.80
2018-06-13T03:01:49.714Z,16.80
2018-06-13T03:04:31.469Z,16.80
2018-06-13T03:07:12.828Z,16.90
2018-06-13T03:09:54.524Z,16.90
2018-06-13T03:12:35.884Z,16.90
2018-06-13T03:15:18.010Z,17.00
2018-06-13T03:17:59.401Z,17.00
2018-06-13T03:20:41.019Z,17.00
2018-06-13T03:23:23.245Z,17.00
2018-06-13T03:26:04.667Z,17.00
2018-06-13T03:28:46.167Z,17.00
2018-06-13T03:31:27.393Z,17.00
2018-06-13T03:34:08.833Z,17.00
2018-06-13T03:36:50.240Z,17.00
2018-06-13T03:39:31.715Z,17.10
2018-06-13T03:42:13.441Z,17.10
2018-06-13T03:44:55.708Z,17.10
2018-06-13T03:47:37.141Z,17.10
2018-06-13T03:50:18.608Z,17.10
2018-06-13T03:53:00.578Z,17.20
2018-06-13T03:55:42.078Z,17.20
2018-06-13T03:58:24.550Z,17.20
2018-06-13T04:01:05.935Z,17.20
2018-06-13T04:03:47.237Z,17.20
2018-06-13T04:06:28.710Z,17.20
2018-06-13T04:09:10.220Z,17.30
2018-06-13T04:11:53.375Z,17.40
2018-06-13T04:14:34.669Z,17.40
2018-06-13T04:17:15.976Z,17.40
2018-06-13T04:19:57.285Z,17.50
2018-06-13T04:22:38.602Z,17.50
2018-06-13T04:25:20.012Z,17.50
2018-06-13T04:28:01.320Z,17.50
2018-06-13T04:30:42.723Z,17.60
2018-06-13T04:33:24.553Z,17.60
2018-06-13T04:36:05.828Z,17.50
2018-06-13T04:38:47.206Z,17.50
2018-06-13T04:41:28.733Z,17.50
2018-06-13T04:44:11.181Z,17.50
2018-06-13T04:46:53.193Z,17.50
2018-06-13T04:49:34.601Z,17.50
2018-06-13T04:52:15.848Z,17.50
2018-06-13T04:54:57.233Z,17.60
2018-06-13T04:57:38.496Z,17.60
2018-06-13T05:00:20.434Z,17.70
2018-06-13T05:03:01.827Z,17.70
2018-06-13T05:05:43.003Z,17.70
2018-06-13T05:08:24.639Z,17.70
2018-06-13T05:11:06.532Z,17.80
2018-06-13T05:13:47.780Z,17.80
2018-06-13T05:16:29.353Z,17.90
2018-06-13T05:19:10.876Z,17.90
2018-06-13T05:21:52.967Z,18.00
2018-06-13T05:24:34.755Z,18.00
2018-06-13T05:27:16.060Z,18.10
2018-06-13T05:29:57.458Z,18.10
2018-06-13T05:32:38.977Z,18.10
2018-06-13T05:35:20.390Z,18.20
2018-06-13T05:38:01.721Z,18.30
2018-06-13T05:40:43.064Z,18.20
2018-06-13T05:43:25.556Z,18.30
2018-06-13T05:46:06.875Z,18.30
2018-06-13T05:48:48.220Z,18.40
2018-06-13T05:51:29.919Z,18.30
2018-06-13T05:54:11.317Z,18.30
2018-06-13T05:59:34.548Z,18.40
2018-06-13T06:02:15.906Z,18.40
2018-06-13T06:04:57.316Z,18.40
2018-06-13T06:07:38.667Z,18.50
2018-06-13T06:10:20.170Z,18.60
2018-06-13T06:13:01.725Z,18.60
2018-06-13T06:15:43.084Z,18.60
2018-06-13T06:18:25.525Z,18.60
2018-06-13T06:21:07.858Z,18.60
2018-06-13T06:23:49.189Z,18.60
2018-06-13T06:26:31.692Z,18.70
2018-06-13T06:29:13.658Z,18.70
2018-06-13T06:31:55.440Z,18.70
2018-06-13T06:34:36.704Z,18.80
2018-06-13T06:37:17.948Z,18.80
2018-06-13T06:39:59.373Z,18.80
2018-06-13T06:42:40.661Z,18.80
2018-06-13T06:45:22.624Z,18.80
2018-06-13T06:48:04.064Z,18.70
2018-06-13T06:50:45.805Z,18.70
2018-06-13T06:53:27.284Z,18.80
2018-06-13T06:56:08.829Z,18.70
2018-06-13T06:58:51.847Z,18.70
2018-06-13T07:01:33.976Z,18.70
2018-06-13T07:04:15.156Z,18.70
2018-06-13T07:06:57.414Z,18.70
2018-06-13T07:09:38.808Z,18.70
2018-06-13T07:12:20.203Z,18.70
2018-06-13T07:15:01.538Z,18.70
2018-06-13T07:17:43.078Z,18.70
2018-06-13T07:20:25.691Z,18.70
2018-06-13T07:23:07.101Z,18.70
2018-06-13T07:25:48.494Z,18.80
2018-06-13T07:28:29.785Z,18.90
2018-06-13T07:31:11.063Z,19.00
2018-06-13T07:33:53.180Z,19.00
2018-06-13T07:36:35.072Z,19.00
2018-06-13T07:39:16.424Z,18.90
2018-06-13T07:41:57.920Z,18.90
2018-06-13T07:44:39.239Z,18.80
2018-06-13T07:47:21.845Z,18.80
2018-06-13T07:50:03.831Z,18.70
2018-06-13T07:52:45.283Z,18.80
2018-06-13T07:55:27.539Z,18.80
2018-06-13T07:58:09.136Z,18.80
2018-06-13T08:00:50.465Z,18.70
2018-06-13T08:03:31.801Z,18.70
2018-06-13T08:06:13.105Z,18.70
2018-06-13T08:08:55.633Z,18.60
2018-06-13T08:11:37.092Z,18.60
2018-06-13T08:14:19.053Z,18.60
2018-06-13T08:17:01.197Z,18.50
2018-06-13T08:19:42.778Z,18.60
2018-06-13T08:22:24.420Z,18.50
2018-06-13T08:25:05.748Z,18.60
2018-06-13T08:27:51.455Z,18.60
2018-06-13T08:30:32.791Z,18.60
2018-06-13T08:33:14.203Z,18.50
2018-06-13T08:35:56.417Z,18.70
2018-06-13T08:38:37.760Z,18.70
2018-06-13T08:41:19.247Z,18.80
2018-06-13T08:44:01.161Z,18.80
2018-06-13T08:46:42.500Z,18.80
2018-06-13T08:49:24.392Z,18.90
2018-06-13T08:52:06.147Z,18.90
2018-06-13T08:54:47.416Z,19.00
2018-06-13T08:57:28.718Z,19.10
2018-06-13T09:00:10.033Z,19.10
2018-06-13T09:02:51.588Z,19.10
2018-06-13T09:05:32.968Z,19.20
2018-06-13T09:08:14.381Z,19.20
2018-06-13T09:10:57.721Z,19.30
2018-06-13T09:13:39.125Z,19.30
2018-06-13T09:16:20.442Z,19.30
2018-06-13T09:19:01.752Z,19.20
2018-06-13T09:21:43.172Z,19.30
2018-06-13T09:24:25.436Z,19.30
2018-06-13T09:27:06.623Z,19.30
2018-06-13T09:29:48.060Z,19.30
2018-06-13T09:32:29.656Z,19.30
2018-06-13T09:35:10.864Z,19.10
2018-06-13T09:37:53.012Z,19.10
2018-06-13T09:40:34.737Z,19.20
2018-06-13T09:43:16.355Z,19.30
2018-06-13T09:46:03.398Z,19.30
2018-06-13T09:48:39.128Z,19.40
2018-06-13T09:51:21.503Z,19.30
2018-06-13T09:54:02.812Z,19.20
2018-06-13T09:56:44.181Z,19.20
2018-06-13T09:59:30.736Z,19.20
2018-06-13T10:02:17.661Z,19.20
2018-06-13T10:07:39.970Z,19.20
2018-06-13T10:10:21.776Z,19.20
2018-06-13T10:13:03.252Z,19.20
2018-06-13T10:15:44.715Z,19.10
2018-06-13T10:18:26.499Z,19.10
2018-06-13T10:21:07.822Z,19.10
2018-06-13T10:23:49.212Z,19.20
2018-06-13T10:26:31.763Z,19.20
2018-06-13T10:29:13.209Z,19.20
2018-06-13T10:31:55.369Z,19.00
2018-06-13T10:34:36.754Z,19.00
2018-06-13T10:37:18.337Z,19.00
2018-06-13T10:39:59.714Z,19.10
2018-06-13T10:42:41.117Z,19.20
2018-06-13T10:45:24.315Z,19.20
2018-06-13T10:48:06.181Z,19.20
2018-06-13T10:50:47.408Z,19.10
2018-06-13T10:53:29.176Z,19.20
2018-06-13T10:56:10.687Z,19.20
2018-06-13T10:58:52.975Z,19.10
2018-06-13T11:01:34.401Z,19.10
2018-06-13T11:04:15.884Z,19.10
2018-06-13T11:06:57.229Z,18.90
2018-06-13T11:09:38.544Z,19.00
2018-06-13T11:12:19.850Z,18.90
2018-06-13T11:15:01.080Z,18.90
2018-06-13T11:17:42.636Z,19.10
2018-06-13T11:20:24.293Z,19.20
2018-06-13T11:23:05.984Z,19.40
2018-06-13T11:25:47.304Z,19.40
2018-06-13T11:28:28.625Z,19.40
2018-06-13T11:31:09.973Z,19.50
2018-06-13T11:33:52.800Z,19.50
2018-06-13T11:36:34.009Z,19.40
2018-06-13T11:39:15.517Z,19.50
2018-06-13T11:41:56.996Z,19.80
2018-06-13T11:44:38.345Z,19.80
2018-06-13T11:47:19.664Z,19.80
2018-06-13T11:50:01.269Z,19.90
2018-06-13T11:52:42.868Z,19.90
2018-06-13T11:55:24.215Z,20.00
2018-06-13T11:58:05.531Z,20.00
2018-06-13T12:03:28.431Z,20.10
2018-06-13T12:06:10.536Z,19.90
2018-06-13T12:08:52.486Z,19.90
2018-06-13T12:11:38.086Z,19.90
2018-06-13T12:17:01.145Z,19.90
2018-06-13T12:19:42.614Z,19.80
2018-06-13T12:25:05.568Z,20.00
2018-06-13T12:27:47.038Z,20.00
2018-06-13T12:30:28.772Z,20.00
2018-06-13T12:33:10.131Z,20.00
2018-06-13T12:35:52.397Z,20.10
2018-06-13T12:38:33.921Z,20.00
2018-06-13T12:41:15.259Z,19.80
2018-06-13T12:43:56.984Z,19.80
2018-06-13T12:46:38.355Z,19.80
2018-06-13T12:49:19.844Z,19.80
2018-06-13T12:52:01.004Z,19.90
2018-06-13T12:54:42.533Z,19.90
2018-06-13T12:57:24.164Z,19.90
2018-06-13T13:02:47.224Z,20.00
2018-06-13T13:05:28.720Z,19.90
2018-06-13T13:08:10.226Z,19.90
2018-06-13T13:10:52.356Z,19.90
2018-06-13T13:13:34.143Z,19.90
2018-06-13T13:16:15.777Z,19.70
2018-06-13T13:18:57.139Z,19.60
2018-06-13T13:21:39.548Z,19.50
2018-06-13T13:24:21.487Z,19.50
2018-06-13T13:27:02.875Z,19.40
2018-06-13T13:29:44.302Z,19.40
2018-06-13T13:32:26.779Z,19.40
2018-06-13T13:35:08.064Z,19.40
2018-06-13T13:37:49.494Z,19.40
2018-06-13T13:40:31.184Z,19.40
2018-06-13T13:43:12.540Z,19.50
2018-06-13T13:45:55.450Z,19.50
2018-06-13T13:48:37.422Z,19.40
2018-06-13T13:51:19.772Z,19.30
2018-06-13T13:54:01.384Z,19.30
2018-06-13T13:56:44.012Z,19.20
2018-06-13T13:59:26.407Z,19.20
2018-06-13T14:05:03.296Z,19.30
2018-06-13T14:07:44.593Z,19.30
2018-06-13T14:10:27.766Z,19.30
2018-06-13T14:13:10.198Z,19.40
2018-06-13T14:15:54.640Z,19.40
2018-06-13T14:18:36.008Z,19.40
2018-06-13T14:21:17.392Z,19.40
2018-06-13T14:23:58.729Z,19.30
2018-06-13T14:26:40.125Z,19.30
2018-06-13T14:29:21.762Z,19.30
2018-06-13T14:32:02.965Z,19.30
2018-06-13T14:34:44.500Z,19.20
2018-06-13T14:37:26.140Z,19.10
2018-06-13T14:40:07.668Z,19.10
2018-06-13T14:42:49.040Z,19.20
2018-06-13T14:45:30.644Z,19.10
2018-06-13T14:48:12.125Z,19.10
2018-06-13T14:50:55.635Z,19.00
2018-06-13T14:53:37.142Z,19.00
2018-06-13T14:56:23.716Z,19.00
2018-06-13T14:59:05.064Z,19.10
2018-06-13T15:01:47.292Z,19.10
2018-06-13T15:04:33.809Z,19.00
2018-06-13T15:07:15.309Z,19.10
2018-06-13T15:09:56.893Z,19.10
2018-06-13T15:12:38.300Z,19.10
2018-06-13T15:15:19.661Z,19.00
2018-06-13T15:18:01.772Z,19.00
2018-06-13T15:20:43.399Z,19.00
2018-06-13T15:26:05.979Z,18.80
2018-06-13T15:28:47.449Z,18.80
2018-06-13T15:31:28.972Z,18.80
2018-06-13T15:34:10.380Z,18.90
2018-06-13T15:36:52.574Z,18.90
2018-06-13T15:39:34.404Z,19.00
2018-06-13T15:42:15.644Z,18.90
2018-06-13T15:44:57.291Z,19.00
2018-06-13T15:47:38.770Z,18.90
2018-06-13T15:50:20.121Z,18.80
2018-06-13T15:53:02.100Z,18.90
2018-06-13T15:55:43.575Z,18.90
2018-06-13T15:58:25.848Z,18.90
2018-06-13T16:01:07.352Z,18.80
2018-06-13T16:03:48.802Z,18.70
2018-06-13T16:06:30.133Z,18.70
2018-06-13T16:09:12.143Z,18.70
2018-06-13T16:11:54.665Z,18.60
2018-06-13T16:14:37.336Z,18.70
2018-06-13T16:17:19.029Z,18.70
2018-06-13T16:20:00.473Z,18.60
2018-06-13T16:22:42.197Z,18.60
2018-06-13T16:25:29.548Z,18.50
2018-06-13T16:28:11.095Z,18.50
2018-06-13T16:30:53.520Z,18.60
2018-06-13T16:33:34.860Z,18.40
2018-06-13T16:38:57.600Z,18.30
2018-06-13T16:41:39.032Z,18.30
2018-06-13T16:44:20.833Z,18.10
2018-06-13T16:47:05.008Z,18.10
2018-06-13T16:49:46.345Z,18.10
2018-06-13T16:52:44.832Z,18.20
2018-06-13T16:55:27.476Z,18.20
2018-06-13T16:58:09.020Z,18.20
2018-06-13T17:00:50.454Z,18.20
2018-06-13T17:03:31.804Z,18.20
2018-06-13T17:06:13.336Z,18.30
2018-06-13T17:08:55.277Z,18.20
2018-06-13T17:11:36.823Z,18.20
2018-06-13T17:14:18.611Z,18.30
2018-06-13T17:16:59.943Z,18.40
2018-06-13T17:19:41.335Z,18.40
2018-06-13T17:22:23.021Z,18.40
2018-06-13T17:25:04.888Z,18.50
2018-06-13T17:27:46.672Z,18.60
2018-06-13T17:30:29.175Z,18.50
2018-06-13T17:33:10.572Z,18.60
2018-06-13T17:35:52.685Z,18.60
2018-06-13T17:38:34.358Z,18.60
2018-06-13T17:41:15.842Z,18.50
2018-06-13T17:43:58.286Z,18.50
2018-06-13T17:46:39.672Z,18.60
2018-06-13T17:49:20.960Z,18.60
2018-06-13T17:52:02.285Z,18.50
2018-06-13T17:54:43.753Z,18.60
2018-06-13T17:57:25.904Z,18.60
2018-06-13T18:02:48.480Z,18.70
2018-06-13T18:05:29.911Z,18.70
2018-06-13T18:08:11.238Z,18.70
2018-06-13T18:10:54.292Z,18.60
2018-06-13T18:13:35.808Z,18.50
2018-06-13T18:16:17.526Z,18.60
2018-06-13T18:18:59.459Z,18.50
2018-06-13T18:21:40.940Z,18.40
2018-06-13T18:24:22.272Z,18.40
2018-06-13T18:27:04.352Z,18.30
2018-06-13T18:29:45.773Z,18.30
2018-06-13T18:32:28.156Z,18.10
2018-06-13T18:35:09.604Z,18.10
2018-06-13T18:37:51.105Z,18.10
2018-06-13T18:40:32.423Z,18.10
2018-06-13T18:43:13.699Z,18.10
2018-06-13T18:45:56.151Z,18.00
2018-06-13T18:48:37.936Z,18.10
2018-06-13T18:51:19.279Z,18.10
2018-06-13T18:54:00.580Z,18.00
2018-06-13T18:56:42.635Z,18.00
2018-06-13T18:59:24.404Z,18.00
2018-06-13T19:02:05.977Z,18.10
2018-06-13T19:04:47.402Z,18.10
2018-06-13T19:07:29.823Z,18.10
2018-06-13T19:10:11.198Z,18.10
2018-06-13T19:12:52.553Z,18.10
2018-06-13T19:15:34.353Z,18.10
2018-06-13T19:18:15.686Z,18.00
2018-06-13T19:20:57.200Z,18.00
2018-06-13T19:23:38.934Z,18.00
2018-06-13T19:26:20.612Z,17.90
2018-06-13T19:29:02.366Z,17.90
2018-06-13T19:31:43.808Z,17.90
2018-06-13T19:34:26.084Z,17.90
2018-06-13T19:37:08.073Z,17.90
2018-06-13T19:39:49.407Z,17.90
2018-06-13T19:42:30.862Z,17.90
2018-06-13T19:45:12.199Z,17.90
2018-06-13T19:48:00.755Z,17.90
2018-06-13T19:50:42.032Z,17.90
2018-06-13T19:53:29.045Z,17.80
2018-06-13T19:56:11.448Z,17.90
2018-06-13T19:58:52.807Z,17.90
2018-06-13T20:01:34.183Z,17.90
2018-06-13T20:04:21.098Z,17.90
2018-06-13T20:07:02.573Z,17.90
2018-06-13T20:09:44.001Z,17.90
2018-06-13T20:12:43.454Z,17.90
2018-06-13T20:15:30.888Z,18.00
2018-06-13T20:18:17.733Z,18.00
2018-06-13T20:20:59.452Z,18.00
2018-06-13T20:23:42.047Z,18.00
2018-06-13T20:26:28.742Z,18.00
2018-06-13T20:29:15.658Z,18.00
2018-06-13T20:31:57.449Z,18.00
2018-06-13T20:35:09.236Z,18.00
2018-06-13T20:37:50.910Z,17.90
2018-06-13T20:40:32.304Z,17.90
2018-06-13T20:43:13.656Z,17.90
2018-06-13T20:45:55.429Z,17.90
2018-06-13T20:48:36.819Z,17.90
2018-06-13T20:51:18.225Z,17.90
2018-06-13T20:54:00.446Z,18.00
2018-06-13T20:56:42.464Z,18.00
2018-06-13T20:59:24.583Z,18.00
2018-06-13T21:02:06.151Z,18.00
2018-06-13T21:04:47.649Z,18.10
2018-06-13T21:07:29.647Z,18.00
2018-06-13T21:10:11.004Z,18.00
2018-06-13T21:12:52.987Z,18.00
2018-06-13T21:15:34.913Z,18.00
2018-06-13T21:18:16.568Z,18.00
2018-06-13T21:20:58.241Z,18.00
2018-06-13T21:23:39.460Z,18.10
2018-06-13T21:26:20.834Z,18.00
2018-06-13T21:29:03.081Z,18.00
2018-06-13T21:31:44.613Z,18.00
2018-06-13T21:34:27.349Z,18.00
2018-06-13T21:37:09.491Z,18.10
2018-06-13T21:39:50.901Z,18.00
2018-06-13T21:42:32.292Z,18.10
2018-06-13T21:45:13.671Z,18.10
2018-06-13T21:47:55.962Z,18.00
2018-06-13T21:50:37.403Z,18.00
2018-06-13T21:53:20.430Z,18.00
2018-06-13T21:56:02.263Z,18.00
2018-06-13T21:58:43.646Z,18.00
2018-06-13T22:01:30.589Z,18.00
2018-06-13T22:04:12.734Z,18.00
2018-06-13T22:06:55.074Z,18.00
2018-06-13T22:09:36.532Z,18.00
2018-06-13T22:12:17.916Z,17.90
2018-06-13T22:15:00.159Z,17.90
2018-06-13T22:17:41.528Z,17.80
2018-06-13T22:25:46.189Z,17.70
2018-06-13T22:28:27.848Z,17.70
2018-06-13T22:31:09.127Z,17.60
2018-06-13T22:33:51.089Z,17.70
2018-06-13T22:36:32.589Z,17.60
2018-06-13T22:39:14.066Z,17.60
2018-06-13T22:41:56.744Z,17.40
2018-06-13T22:44:37.943Z,17.40
2018-06-13T22:47:19.558Z,17.40
2018-06-13T22:50:01.013Z,17.40
2018-06-13T22:55:23.392Z,17.40
2018-06-13T22:58:05.847Z,17.40
2018-06-13T23:01:12.320Z,17.30
2018-06-13T23:03:55.120Z,17.30
2018-06-13T23:06:36.479Z,17.30
2018-06-13T23:09:17.920Z,17.40
2018-06-13T23:12:00.176Z,17.40
2018-06-13T23:14:41.480Z,17.40
2018-06-13T23:17:22.792Z,17.40
2018-06-13T23:20:04.758Z,17.40
2018-06-13T23:22:46.288Z,17.40
2018-06-13T23:28:08.896Z,17.30
2018-06-13T23:30:50.279Z,17.40
2018-06-13T23:33:31.944Z,17.40
2018-06-13T23:36:13.127Z,17.40
2018-06-13T23:38:54.954Z,17.40
2018-06-13T23:41:36.232Z,17.50
2018-06-13T23:44:17.671Z,17.50
2018-06-13T23:46:59.336Z,17.50
2018-06-13T23:49:40.805Z,17.40
2018-06-13T23:52:22.157Z,17.40
2018-06-13T23:55:03.747Z,17.50
2018-06-13T23:57:45.202Z,17.50
